createdAt,value
2018-02-22T00:01:40.106Z,2.70
2018-02-22T00:04:10.309Z,2.70
2018-02-22T00:06:38.563Z,2.70
2018-02-22T00:09:06.829Z,2.60
2018-02-22T00:11:35.082Z,2.60
2018-02-22T00:14:03.337Z,2.60
2018-02-22T00:16:31.961Z,2.50
2018-02-22T00:19:00.209Z,2.50
2018-02-22T00:21:28.461Z,2.50
2018-02-22T00:23:57.493Z,2.50
2018-02-22T00:26:25.750Z,2.50
2018-02-22T00:28:54.761Z,2.40
2018-02-22T00:31:23.039Z,2.40
2018-02-22T00:33:51.291Z,2.50
2018-02-22T00:36:19.538Z,2.50
2018-02-22T00:38:47.867Z,2.50
2018-02-22T00:41:16.118Z,2.50
2018-02-22T00:43:44.371Z,2.50
2018-02-22T00:46:12.826Z,2.50
2018-02-22T00:48:41.082Z,2.50
2018-02-22T00:51:09.339Z,2.50
2018-02-22T00:53:37.615Z,2.40
2018-02-22T00:56:06.630Z,2.30
2018-02-22T00:58:34.995Z,2.30
2018-02-22T01:01:03.725Z,2.40
2018-02-22T01:03:31.974Z,2.50
2018-02-22T01:06:00.229Z,2.50
2018-02-22T01:08:29.739Z,2.50
2018-02-22T01:10:58.754Z,2.30
2018-02-22T01:13:27.011Z,2.30
2018-02-22T01:15:55.288Z,2.30
2018-02-22T01:18:23.538Z,2.30
2018-02-22T01:20:51.790Z,2.30
2018-02-22T01:23:20.475Z,2.30
2018-02-22T01:25:48.711Z,2.20
2018-02-22T01:28:16.963Z,2.30
2018-02-22T01:30:45.239Z,2.30
2018-02-22T01:33:13.495Z,2.20
2018-02-22T01:35:41.742Z,2.20
2018-02-22T01:38:10.015Z,2.20
2018-02-22T01:40:38.266Z,2.10
2018-02-22T01:43:06.518Z,2.00
2018-02-22T01:45:34.847Z,2.10
2018-02-22T01:48:03.226Z,2.00
2018-02-22T01:50:31.486Z,2.10
2018-02-22T01:52:59.762Z,2.00
2018-02-22T01:55:28.019Z,2.00
2018-02-22T01:57:57.026Z,1.90
2018-02-22T02:00:25.315Z,1.90
2018-02-22T02:02:53.563Z,1.80
2018-02-22T02:05:21.813Z,1.70
2018-02-22T02:07:50.295Z,1.70
2018-02-22T02:10:19.322Z,1.70
2018-02-22T02:12:47.579Z,1.70
2018-02-22T02:15:15.854Z,1.70
2018-02-22T02:17:44.323Z,1.70
2018-02-22T02:20:12.576Z,1.70
2018-02-22T02:22:40.851Z,1.70
2018-02-22T02:25:09.103Z,1.70
2018-02-22T02:27:37.354Z,1.70
2018-02-22T02:30:05.991Z,1.70
2018-02-22T02:32:34.239Z,1.70
2018-02-22T02:35:02.487Z,1.70
2018-02-22T02:37:30.764Z,1.70
2018-02-22T02:39:59.786Z,1.60
2018-02-22T02:42:28.034Z,1.60
2018-02-22T02:44:56.312Z,1.60
2018-02-22T02:47:24.565Z,1.60
2018-02-22T02:49:53.148Z,1.60
2018-02-22T02:52:21.703Z,1.60
2018-02-22T02:54:50.039Z,1.60
2018-02-22T02:57:19.348Z,1.50
2018-02-22T02:59:49.555Z,1.50
2018-02-22T03:02:18.572Z,1.50
2018-02-22T03:04:46.819Z,1.50
2018-02-22T03:07:15.108Z,1.50
2018-02-22T03:09:43.361Z,1.50
2018-02-22T03:12:11.607Z,1.40
2018-02-22T03:14:40.174Z,1.30
2018-02-22T03:17:08.431Z,1.30
2018-02-22T03:19:36.675Z,1.30
2018-02-22T03:22:04.952Z,1.30
2018-02-22T03:24:33.202Z,1.20
2018-02-22T03:27:01.451Z,1.30
2018-02-22T03:29:29.726Z,1.30
2018-02-22T03:31:58.090Z,1.30
2018-02-22T03:34:26.288Z,1.40
2018-02-22T03:36:54.627Z,1.40
2018-02-22T03:39:23.646Z,1.30
2018-02-22T03:41:51.898Z,1.30
2018-02-22T03:44:20.174Z,1.20
2018-02-22T03:46:48.434Z,1.20
2018-02-22T03:49:16.689Z,1.20
2018-02-22T03:51:45.554Z,1.10
2018-02-22T03:54:13.803Z,1.10
2018-02-22T03:56:42.058Z,1.00
2018-02-22T03:59:10.718Z,1.00
2018-02-22T04:01:38.972Z,0.90
2018-02-22T04:04:07.214Z,0.90
2018-02-22T04:06:35.495Z,0.90
2018-02-22T04:09:04.516Z,0.90
2018-02-22T04:11:32.766Z,0.90
2018-02-22T04:14:01.038Z,0.90
2018-02-22T04:16:29.286Z,1.00
2018-02-22T04:18:57.534Z,1.00
2018-02-22T04:21:26.103Z,1.00
2018-02-22T04:23:54.350Z,0.90
2018-02-22T04:26:22.606Z,0.90
2018-02-22T04:28:50.902Z,0.90
2018-02-22T04:31:19.938Z,0.80
2018-02-22T04:33:48.174Z,0.80
2018-02-22T04:36:16.450Z,0.70
2018-02-22T04:38:44.702Z,0.70
2018-02-22T04:41:12.950Z,0.70
2018-02-22T04:43:41.544Z,0.70
2018-02-22T04:46:09.796Z,0.80
2018-02-22T04:48:38.048Z,0.80
2018-02-22T04:51:06.682Z,0.80
2018-02-22T04:53:35.315Z,0.80
2018-02-22T04:56:04.334Z,0.80
2018-02-22T04:58:32.609Z,0.80
2018-02-22T05:01:01.035Z,0.80
2018-02-22T05:03:29.300Z,0.80
2018-02-22T05:05:57.876Z,0.80
2018-02-22T05:08:26.122Z,0.80
2018-02-22T05:10:54.376Z,0.80
2018-02-22T05:13:22.659Z,0.80
2018-02-22T05:15:51.666Z,0.70
2018-02-22T05:18:19.914Z,0.70
2018-02-22T05:20:48.959Z,0.80
2018-02-22T05:23:17.215Z,0.80
2018-02-22T05:25:45.466Z,0.70
2018-02-22T05:28:14.652Z,0.50
2018-02-22T05:30:43.083Z,0.50
2018-02-22T05:33:11.330Z,0.50
2018-02-22T05:35:39.606Z,0.50
2018-02-22T05:38:08.626Z,0.50
2018-02-22T05:40:36.877Z,0.50
2018-02-22T05:43:05.355Z,0.50
2018-02-22T05:45:34.374Z,0.40
2018-02-22T05:48:02.627Z,0.30
2018-02-22T05:50:31.123Z,0.40
2018-02-22T05:52:59.375Z,0.50
2018-02-22T05:55:27.749Z,0.50
2018-02-22T05:57:56.022Z,0.50
2018-02-22T06:00:24.270Z,0.40
2018-02-22T06:02:52.543Z,0.30
2018-02-22T06:05:20.823Z,0.30
2018-02-22T06:07:49.092Z,0.30
2018-02-22T06:10:17.330Z,0.30
2018-02-22T06:12:45.958Z,0.20
2018-02-22T06:15:14.208Z,0.30
2018-02-22T06:17:42.458Z,0.20
2018-02-22T06:20:10.743Z,0.20
2018-02-22T06:22:39.754Z,0.10
2018-02-22T06:25:08.006Z,0.10
2018-02-22T06:27:36.288Z,0.10
2018-02-22T06:30:04.541Z,0.10
2018-02-22T06:32:32.795Z,0.20
2018-02-22T06:35:01.375Z,0.20
2018-02-22T06:37:29.619Z,0.20
2018-02-22T06:39:57.879Z,0.20
2018-02-22T06:42:26.151Z,0.30
2018-02-22T06:44:55.167Z,0.40
2018-02-22T06:47:23.527Z,0.30
2018-02-22T06:49:52.879Z,0.50
2018-02-22T06:52:21.270Z,0.40
2018-02-22T06:54:49.515Z,0.50
2018-02-22T06:57:18.618Z,0.50
2018-02-22T06:59:46.876Z,0.50
2018-02-22T07:02:15.131Z,0.50
2018-02-22T07:04:43.410Z,0.60
2018-02-22T07:07:12.427Z,0.80
2018-02-22T07:09:40.682Z,0.70
2018-02-22T07:12:08.959Z,0.70
2018-02-22T07:14:37.211Z,0.60
2018-02-22T07:17:05.467Z,0.70
2018-02-22T07:19:34.038Z,0.70
2018-02-22T07:22:02.526Z,0.70
2018-02-22T07:24:30.771Z,0.70
2018-02-22T07:26:59.080Z,0.80
2018-02-22T07:29:27.315Z,0.80
2018-02-22T07:31:55.572Z,0.80
2018-02-22T07:34:24.628Z,0.90
2018-02-22T07:36:52.875Z,0.80
2018-02-22T07:39:21.293Z,1.00
2018-02-22T07:41:49.755Z,1.10
2018-02-22T07:44:18.010Z,1.10
2018-02-22T07:46:46.271Z,1.10
2018-02-22T07:49:14.550Z,1.20
2018-02-22T07:51:42.800Z,1.20
2018-02-22T07:54:11.081Z,1.30
2018-02-22T07:56:39.361Z,1.40
2018-02-22T07:59:08.675Z,1.50
2018-02-22T08:01:37.687Z,1.60
2018-02-22T08:04:06.107Z,1.50
2018-02-22T08:06:34.342Z,1.60
2018-02-22T08:09:02.591Z,1.60
2018-02-22T08:11:30.867Z,1.60
2018-02-22T08:13:59.886Z,1.70
2018-02-22T08:16:28.139Z,1.70
2018-02-22T08:18:56.414Z,1.70
2018-02-22T08:21:24.666Z,1.70
2018-02-22T08:23:53.051Z,1.80
2018-02-22T08:26:21.495Z,1.80
2018-02-22T08:28:49.739Z,1.70
2018-02-22T08:31:17.983Z,1.80
2018-02-22T08:33:47.028Z,1.90
2018-02-22T08:36:15.279Z,1.90
2018-02-22T08:38:44.290Z,2.00
2018-02-22T08:41:12.566Z,2.00
2018-02-22T08:43:40.810Z,2.00
2018-02-22T08:46:09.057Z,2.00
2018-02-22T08:48:37.527Z,2.00
2018-02-22T08:51:05.774Z,2.00
2018-02-22T08:53:34.023Z,2.10
2018-02-22T08:56:03.067Z,2.20
2018-02-22T08:58:31.309Z,2.10
2018-02-22T09:01:00.922Z,2.20
2018-02-22T09:03:29.960Z,2.30
2018-02-22T09:05:58.203Z,2.30
2018-02-22T09:08:26.635Z,2.40
2018-02-22T09:10:55.086Z,2.50
2018-02-22T09:13:23.331Z,2.50
2018-02-22T09:15:51.575Z,2.50
2018-02-22T09:18:19.847Z,2.50
2018-02-22T09:20:48.095Z,2.50
2018-02-22T09:23:16.334Z,2.50
2018-02-22T09:25:45.481Z,2.70
2018-02-22T09:28:13.707Z,2.70
2018-02-22T09:30:42.718Z,2.80
2018-02-22T09:33:11.371Z,2.80
2018-02-22T09:35:39.615Z,2.80
2018-02-22T09:38:07.855Z,2.80
2018-02-22T09:40:36.132Z,2.80
2018-02-22T09:43:04.370Z,2.70
2018-02-22T09:45:32.616Z,2.70
2018-02-22T09:48:00.881Z,2.90
2018-02-22T09:50:29.130Z,2.90
2018-02-22T09:52:57.382Z,3.00
2018-02-22T09:55:25.706Z,3.20
2018-02-22T09:57:53.953Z,3.20
2018-02-22T10:00:22.954Z,3.70
2018-02-22T10:02:51.443Z,3.70
2018-02-22T10:05:19.875Z,4.30
2018-02-22T10:07:48.099Z,4.90
2018-02-22T10:10:16.363Z,5.30
2018-02-22T10:12:44.619Z,5.60
2018-02-22T10:15:12.861Z,6.00
2018-02-22T10:17:41.644Z,6.30
2018-02-22T10:20:09.891Z,6.50
2018-02-22T10:22:38.131Z,6.90
2018-02-22T10:25:06.398Z,7.20
2018-02-22T10:27:34.648Z,7.40
2018-02-22T10:30:02.891Z,7.60
2018-02-22T10:32:31.156Z,7.80
2018-02-22T10:34:59.399Z,7.90
2018-02-22T10:37:27.642Z,7.90
2018-02-22T10:39:56.126Z,7.80
2018-02-22T10:42:24.365Z,8.00
2018-02-22T10:44:52.609Z,8.20
2018-02-22T10:47:20.883Z,8.30
2018-02-22T10:49:49.135Z,8.20
2018-02-22T10:52:17.377Z,8.10
2018-02-22T10:54:46.407Z,9.00
2018-02-22T10:57:14.647Z,9.00
2018-02-22T10:59:42.900Z,9.70
2018-02-22T11:02:17.143Z,10.10
2018-02-22T11:04:46.238Z,10.20
2018-02-22T11:07:14.491Z,10.50
2018-02-22T11:09:43.530Z,10.90
2018-02-22T11:12:11.780Z,10.90
2018-02-22T11:14:41.958Z,11.00
2018-02-22T11:17:10.231Z,11.00
2018-02-22T11:19:38.474Z,11.10
2018-02-22T11:22:06.722Z,11.30
2018-02-22T11:24:35.187Z,11.60
2018-02-22T11:27:03.442Z,11.90
2018-02-22T11:29:31.699Z,12.00
2018-02-22T11:31:59.975Z,12.20
2018-02-22T11:34:28.247Z,12.40
2018-02-22T11:36:56.493Z,12.40
2018-02-22T11:39:25.527Z,12.30
2018-02-22T11:41:53.770Z,12.30
2018-02-22T11:44:22.023Z,12.40
2018-02-22T11:46:50.687Z,12.50
2018-02-22T11:49:18.945Z,12.90
2018-02-22T11:51:47.190Z,13.30
2018-02-22T11:54:16.230Z,13.60
2018-02-22T11:56:44.503Z,13.60
2018-02-22T11:59:12.750Z,13.80
2018-02-22T12:01:41.024Z,13.90
2018-02-22T12:04:10.035Z,14.30
2018-02-22T12:06:38.574Z,14.30
2018-02-22T12:09:07.917Z,14.90
2018-02-22T12:11:36.168Z,14.90
2018-02-22T12:14:04.418Z,15.20
2018-02-22T12:16:32.706Z,15.00
2018-02-22T12:19:04.932Z,14.90
2018-02-22T12:21:33.184Z,14.90
2018-02-22T12:24:01.669Z,15.20
2018-02-22T12:26:29.907Z,15.40
2018-02-22T12:28:59.090Z,15.80
2018-02-22T12:31:27.342Z,15.80
2018-02-22T12:33:55.617Z,16.00
2018-02-22T12:36:24.083Z,16.20
2018-02-22T12:38:54.534Z,16.50
2018-02-22T12:41:26.939Z,16.80
2018-02-22T12:43:55.990Z,17.00
2018-02-22T12:46:24.213Z,17.00
2018-02-22T12:48:52.730Z,17.10
2018-02-22T12:51:21.034Z,17.00
2018-02-22T12:53:49.418Z,17.00
2018-02-22T12:56:17.857Z,17.10
2018-02-22T12:58:46.210Z,17.30
2018-02-22T13:01:15.230Z,17.50
2018-02-22T13:06:18.076Z,17.30
2018-02-22T13:08:46.533Z,17.20
2018-02-22T13:11:14.835Z,17.30
2018-02-22T13:13:43.094Z,17.50
2018-02-22T13:16:11.368Z,17.60
2018-02-22T13:18:40.595Z,17.80
2018-02-22T13:21:08.851Z,18.00
2018-02-22T13:23:37.171Z,18.10
2018-02-22T13:26:07.566Z,18.40
2018-02-22T13:28:35.952Z,18.40
2018-02-22T13:31:04.420Z,18.60
2018-02-22T13:33:44.443Z,18.90
2018-02-22T13:36:12.715Z,19.00
2018-02-22T13:39:02.727Z,19.00
2018-02-22T13:41:30.993Z,19.00
2018-02-22T13:44:12.817Z,19.10
2018-02-22T13:46:42.291Z,19.10
2018-02-22T13:49:22.586Z,19.20
2018-02-22T13:51:50.855Z,19.20
2018-02-22T13:54:19.368Z,19.20
2018-02-22T13:57:00.466Z,19.40
2018-02-22T13:59:30.072Z,19.60
2018-02-22T14:02:11.220Z,19.70
2018-02-22T14:04:40.507Z,19.50
2018-02-22T14:07:10.600Z,19.40
2018-02-22T14:09:39.119Z,19.40
2018-02-22T14:12:08.135Z,19.80
2018-02-22T14:14:36.727Z,19.80
2018-02-22T14:17:05.705Z,19.70
2018-02-22T14:19:34.654Z,19.90
2018-02-22T14:22:02.974Z,20.00
2018-02-22T14:24:32.214Z,20.10
2018-02-22T14:27:00.538Z,20.10
2018-02-22T14:29:29.066Z,20.10
2018-02-22T14:31:59.144Z,20.00
2018-02-22T14:34:27.951Z,20.10
2018-02-22T14:36:56.208Z,20.40
2018-02-22T14:39:24.613Z,20.10
2018-02-22T14:41:55.106Z,20.00
2018-02-22T14:44:23.483Z,19.90
2018-02-22T14:46:51.939Z,20.00
2018-02-22T14:49:22.395Z,19.80
2018-02-22T14:51:50.648Z,19.40
2018-02-22T14:54:19.338Z,19.30
2018-02-22T14:56:47.584Z,19.30
2018-02-22T14:59:17.427Z,19.20
2018-02-22T15:01:46.682Z,19.40
2018-02-22T15:04:15.056Z,19.60
2018-02-22T15:06:43.302Z,19.50
2018-02-22T15:09:12.496Z,19.30
2018-02-22T15:11:40.874Z,19.20
2018-02-22T15:14:09.127Z,18.90
2018-02-22T15:16:37.405Z,18.50
2018-02-22T15:19:05.902Z,18.40
2018-02-22T15:21:35.675Z,18.10
2018-02-22T15:24:04.960Z,18.10
2018-02-22T15:26:33.298Z,18.00
2018-02-22T15:29:01.691Z,18.00
2018-02-22T15:31:31.350Z,17.60
2018-02-22T15:33:59.798Z,17.60
2018-02-22T15:36:28.055Z,16.30
2018-02-22T15:38:56.454Z,15.10
2018-02-22T15:41:25.475Z,13.40
2018-02-22T15:43:53.735Z,13.30
2018-02-22T15:46:22.016Z,12.70
2018-02-22T15:48:50.266Z,12.20
2018-02-22T15:51:19.326Z,11.60
2018-02-22T15:53:48.662Z,11.60
2018-02-22T15:56:17.839Z,11.30
2018-02-22T15:58:46.411Z,11.00
2018-02-22T16:01:14.988Z,10.70
2018-02-22T16:03:45.438Z,10.50
2018-02-22T16:06:13.822Z,10.50
2018-02-22T16:08:42.218Z,10.30
2018-02-22T16:11:12.607Z,10.00
2018-02-22T16:13:40.843Z,10.00
2018-02-22T16:16:09.374Z,9.70
2018-02-22T16:18:37.624Z,9.60
2018-02-22T16:21:06.243Z,9.30
2018-02-22T16:23:35.569Z,9.20
2018-02-22T16:26:04.843Z,8.80
2018-02-22T16:28:33.217Z,8.70
2018-02-22T16:31:01.627Z,8.70
2018-02-22T16:33:32.734Z,8.60
2018-02-22T16:36:02.555Z,8.60
2018-02-22T16:38:30.843Z,8.50
2018-02-22T16:40:59.161Z,8.30
2018-02-22T16:43:27.555Z,8.20
2018-02-22T16:45:56.825Z,8.10
2018-02-22T16:48:26.621Z,7.80
2018-02-22T16:50:55.110Z,7.80
2018-02-22T16:53:24.136Z,7.70
2018-02-22T16:55:54.611Z,7.60
2018-02-22T16:58:23.362Z,7.60
2018-02-22T17:00:51.666Z,7.40
2018-02-22T17:03:20.046Z,7.30
2018-02-22T17:05:48.482Z,7.20
2018-02-22T17:08:17.478Z,7.20
2018-02-22T17:10:46.308Z,7.10
2018-02-22T17:13:14.603Z,7.10
2018-02-22T17:15:42.867Z,7.00
2018-02-22T17:18:11.248Z,6.90
2018-02-22T17:20:39.730Z,6.90
2018-02-22T17:23:08.034Z,6.80
2018-02-22T17:25:36.551Z,6.50
2018-02-22T17:28:10.402Z,6.50
2018-02-22T17:30:44.420Z,6.50
2018-02-22T17:33:12.923Z,6.40
2018-02-22T17:35:43.694Z,6.20
2018-02-22T17:38:12.855Z,6.20
2018-02-22T17:40:41.189Z,6.10
2018-02-22T17:43:11.635Z,5.90
2018-02-22T17:45:43.246Z,5.90
2018-02-22T17:48:12.702Z,5.80
2018-02-22T17:50:41.067Z,5.70
2018-02-22T17:53:09.483Z,5.60
2018-02-22T17:55:39.850Z,5.60
2018-02-22T17:58:09.269Z,5.60
2018-02-22T18:00:39.599Z,5.50
2018-02-22T18:03:07.878Z,5.40
2018-02-22T18:05:36.255Z,5.30
2018-02-22T18:08:04.831Z,5.40
2018-02-22T18:10:33.076Z,5.40
2018-02-22T18:13:01.521Z,5.30
2018-02-22T18:15:29.938Z,5.20
2018-02-22T18:17:59.387Z,5.30
2018-02-22T18:20:27.767Z,5.20
2018-02-22T18:22:56.242Z,5.10
2018-02-22T18:25:24.597Z,5.20
2018-02-22T18:27:52.895Z,5.10
2018-02-22T18:30:21.312Z,5.00
2018-02-22T18:32:51.509Z,5.00
2018-02-22T18:35:19.877Z,5.00
2018-02-22T18:37:58.835Z,4.90
2018-02-22T18:40:33.667Z,4.90
2018-02-22T18:46:05.031Z,4.70
2018-02-22T18:48:33.415Z,4.70
2018-02-22T18:51:02.435Z,4.50
2018-02-22T18:53:30.746Z,4.40
2018-02-22T18:55:59.522Z,4.40
2018-02-22T18:58:27.831Z,4.40
2018-02-22T19:00:56.205Z,4.30
2018-02-22T19:03:24.606Z,4.30
2018-02-22T19:05:52.964Z,4.20
2018-02-22T19:08:25.371Z,4.10
2018-02-22T19:10:54.394Z,4.10
2018-02-22T19:13:23.318Z,4.10
2018-02-22T19:15:52.088Z,4.10
2018-02-22T19:18:20.390Z,4.10
2018-02-22T19:20:48.771Z,4.10
2018-02-22T19:23:17.159Z,4.10
2018-02-22T19:25:45.832Z,4.10
2018-02-22T19:28:14.211Z,4.20
2018-02-22T19:30:42.623Z,4.20
2018-02-22T19:33:11.639Z,4.00
2018-02-22T19:35:41.081Z,4.00
2018-02-22T19:38:10.992Z,3.90
2018-02-22T19:40:39.221Z,3.80
2018-02-22T19:43:07.555Z,3.70
2018-02-22T19:45:39.654Z,3.60
2018-02-22T19:48:09.847Z,3.70
2018-02-22T19:50:38.274Z,3.70
2018-02-22T19:53:06.642Z,3.60
2018-02-22T19:55:39.594Z,3.50
2018-02-22T19:58:08.088Z,3.50
2018-02-22T20:00:36.354Z,3.50
2018-02-22T20:03:04.737Z,3.50
2018-02-22T20:05:34.051Z,3.60
2018-02-22T20:08:02.415Z,3.60
2018-02-22T20:10:30.786Z,3.50
2018-02-22T20:12:59.251Z,3.40
2018-02-22T20:15:27.554Z,3.40
2018-02-22T20:18:00.947Z,3.50
2018-02-22T20:20:30.214Z,3.50
2018-02-22T20:22:58.570Z,3.40
2018-02-22T20:25:31.000Z,3.30
2018-02-22T20:27:59.587Z,3.20
2018-02-22T20:30:29.803Z,3.20
2018-02-22T20:32:58.296Z,3.20
2018-02-22T20:35:26.603Z,3.20
2018-02-22T20:37:55.666Z,3.20
2018-02-22T20:40:24.054Z,3.20
2018-02-22T20:42:52.319Z,3.10
2018-02-22T20:45:20.702Z,3.10
2018-02-22T20:47:53.148Z,3.00
2018-02-22T20:50:21.751Z,3.10
2018-02-22T20:52:55.651Z,3.00
2018-02-22T20:55:44.231Z,3.10
2018-02-22T20:58:13.195Z,3.10
2018-02-22T21:00:41.424Z,2.90
2018-02-22T21:03:15.732Z,2.80
2018-02-22T21:05:43.975Z,2.80
2018-02-22T21:08:12.358Z,2.80
2018-02-22T21:10:40.765Z,2.70
2018-02-22T21:13:09.778Z,2.70
2018-02-22T21:15:38.110Z,2.70
2018-02-22T21:18:11.183Z,2.80
2018-02-22T21:20:40.430Z,2.80
2018-02-22T21:23:08.770Z,2.80
2018-02-22T21:25:37.191Z,2.70
2018-02-22T21:28:06.203Z,2.60
2018-02-22T21:30:34.467Z,2.60
2018-02-22T21:33:02.927Z,2.60
2018-02-22T21:35:31.939Z,2.50
2018-02-22T21:38:03.346Z,2.50
2018-02-22T21:40:36.718Z,2.50
2018-02-22T21:43:04.961Z,2.50
2018-02-22T21:45:33.392Z,2.40
2018-02-22T21:48:01.668Z,2.50
2018-02-22T21:50:29.905Z,2.60
2018-02-22T21:52:58.155Z,2.50
2018-02-22T21:55:26.635Z,2.40
2018-02-22T21:57:55.654Z,2.40
2018-02-22T22:00:23.984Z,2.40
2018-02-22T22:02:52.423Z,2.50
2018-02-22T22:05:20.783Z,2.40
2018-02-22T22:07:51.202Z,2.30
2018-02-22T22:10:19.470Z,2.20
2018-02-22T22:12:47.715Z,2.20
2018-02-22T22:15:15.950Z,2.20
2018-02-22T22:17:44.226Z,2.20
2018-02-22T22:20:12.550Z,2.20
2018-02-22T22:22:40.802Z,2.10
2018-02-22T22:25:09.118Z,2.00
2018-02-22T22:27:37.424Z,2.00
2018-02-22T22:30:05.637Z,2.00
2018-02-22T22:32:33.915Z,1.90
2018-02-22T22:35:02.520Z,1.90
2018-02-22T22:37:30.769Z,1.90
2018-02-22T22:40:00.235Z,2.00
2018-02-22T22:42:29.311Z,2.10
2018-02-22T22:44:58.326Z,1.90
2018-02-22T22:47:27.069Z,1.90
2018-02-22T22:49:55.310Z,1.90
2018-02-22T22:52:23.555Z,2.00
2018-02-22T22:54:52.590Z,1.90
2018-02-22T22:57:20.833Z,1.90
2018-02-22T22:59:49.079Z,1.90
2018-02-22T23:02:18.405Z,1.80
2018-02-22T23:04:47.438Z,1.90
2018-02-22T23:07:15.678Z,1.90
2018-02-22T23:09:44.017Z,1.80
2018-02-22T23:12:12.263Z,1.70
2018-02-22T23:14:40.511Z,1.70
2018-02-22T23:17:09.334Z,1.70
2018-02-22T23:19:37.575Z,1.70
2018-02-22T23:22:05.823Z,1.70
2018-02-22T23:24:34.227Z,1.70
2018-02-22T23:27:02.466Z,1.70
2018-02-22T23:29:30.712Z,1.60
2018-02-22T23:31:59.327Z,1.60
2018-02-22T23:34:27.571Z,1.70
2018-02-22T23:36:55.823Z,1.50
2018-02-22T23:39:24.098Z,1.40
2018-02-22T23:42:08.894Z,1.40
2018-02-22T23:44:37.162Z,1.40
2018-02-22T23:47:05.424Z,1.30
2018-02-22T23:49:33.659Z,1.30
2018-02-22T23:52:02.322Z,1.20
2018-02-22T23:54:30.582Z,1.30
2018-02-22T23:56:58.834Z,1.30
2018-02-22T23:59:27.114Z,1.30
